createdAt,value
2023-02-14T00:00:27.070Z,0.00
2023-02-14T00:01:27.066Z,0.00
2023-02-14T00:02:27.091Z,0.00
2023-02-14T00:03:27.044Z,0.00
2023-02-14T00:04:27.112Z,0.00
2023-02-14T00:05:27.020Z,0.00
2023-02-14T00:06:27.017Z,0.00
2023-02-14T00:07:27.015Z,0.00
2023-02-14T00:08:26.984Z,0.00
2023-02-14T00:09:26.992Z,0.00
2023-02-14T00:10:26.965Z,0.00
2023-02-14T00:11:26.957Z,0.00
2023-02-14T00:12:26.955Z,0.00
2023-02-14T00:13:26.956Z,0.00
2023-02-14T00:14:26.925Z,0.00
2023-02-14T00:15:26.916Z,0.00
2023-02-14T00:16:26.936Z,0.00
2023-02-14T00:17:26.903Z,0.00
2023-02-14T00:18:26.888Z,0.00
2023-02-14T00:19:26.870Z,0.00
2023-02-14T00:20:26.863Z,0.00
2023-02-14T00:21:26.848Z,0.00
2023-02-14T00:22:26.841Z,0.00
2023-02-14T00:23:26.839Z,0.00
2023-02-14T00:24:26.812Z,0.00
2023-02-14T00:25:26.819Z,0.00
2023-02-14T00:26:26.791Z,0.00
2023-02-14T00:27:26.782Z,0.00
2023-02-14T00:28:26.783Z,0.00
2023-02-14T00:29:26.762Z,0.00
2023-02-14T00:30:26.905Z,0.00
2023-02-14T00:31:26.926Z,0.00
2023-02-14T00:32:26.726Z,0.00
2023-02-14T00:33:27.580Z,0.00
2023-02-14T00:34:26.721Z,0.00
2023-02-14T00:35:26.698Z,0.00
2023-02-14T00:36:26.694Z,0.00
2023-02-14T00:37:26.676Z,0.00
2023-02-14T00:38:26.742Z,0.00
2023-02-14T00:39:26.661Z,0.00
2023-02-14T00:40:26.640Z,0.00
2023-02-14T00:41:26.648Z,0.00
2023-02-14T00:42:26.628Z,0.00
2023-02-14T00:43:26.613Z,0.00
2023-02-14T00:44:26.607Z,0.00
2023-02-14T00:45:26.644Z,0.00
2023-02-14T00:46:26.583Z,0.00
2023-02-14T00:47:26.564Z,0.00
2023-02-14T00:48:26.555Z,0.00
2023-02-14T00:49:26.557Z,0.00
2023-02-14T00:50:26.534Z,0.00
2023-02-14T00:51:26.522Z,0.00
2023-02-14T00:52:26.522Z,0.00
2023-02-14T00:53:26.505Z,0.00
2023-02-14T00:54:26.507Z,0.00
2023-02-14T00:55:26.494Z,0.00
2023-02-14T00:56:26.480Z,0.00
2023-02-14T00:57:26.454Z,0.00
2023-02-14T00:58:26.456Z,0.00
2023-02-14T00:59:26.450Z,0.00
2023-02-14T01:00:26.458Z,0.00
2023-02-14T01:01:27.146Z,0.00
2023-02-14T01:02:26.466Z,0.00
2023-02-14T01:03:26.390Z,0.00
2023-02-14T01:04:26.403Z,0.00
2023-02-14T01:05:26.378Z,0.00
2023-02-14T01:06:26.372Z,0.00
2023-02-14T01:07:26.360Z,0.00
2023-02-14T01:08:26.343Z,0.00
2023-02-14T01:09:26.337Z,0.00
2023-02-14T01:10:26.328Z,0.00
2023-02-14T01:11:27.205Z,0.00
2023-02-14T01:12:26.315Z,0.00
2023-02-14T01:13:27.089Z,0.00
2023-02-14T01:14:26.285Z,0.00
2023-02-14T01:15:26.267Z,0.00
2023-02-14T01:16:26.374Z,0.00
2023-02-14T01:17:26.237Z,0.00
2023-02-14T01:18:26.303Z,0.00
2023-02-14T01:19:26.231Z,0.00
2023-02-14T01:20:26.216Z,0.00
2023-02-14T01:21:26.203Z,0.00
2023-02-14T01:22:26.191Z,0.00
2023-02-14T01:23:26.178Z,0.00
2023-02-14T01:24:26.169Z,0.00
2023-02-14T01:25:26.154Z,0.00
2023-02-14T01:26:26.159Z,0.00
2023-02-14T01:27:26.143Z,0.00
2023-02-14T01:28:26.149Z,0.00
2023-02-14T01:29:26.115Z,0.00
2023-02-14T01:30:26.259Z,0.00
2023-02-14T01:31:26.357Z,0.00
2023-02-14T01:32:26.091Z,0.00
2023-02-14T01:33:26.118Z,0.00
2023-02-14T01:34:26.073Z,0.00
2023-02-14T01:35:26.058Z,0.00
2023-02-14T01:36:26.055Z,0.00
2023-02-14T01:37:26.031Z,0.00
2023-02-14T01:38:26.016Z,0.00
2023-02-14T01:39:26.002Z,0.00
2023-02-14T01:40:26.028Z,0.00
2023-02-14T01:41:25.989Z,0.00
2023-02-14T01:42:25.974Z,0.00
2023-02-14T01:43:25.965Z,0.00
2023-02-14T01:44:25.970Z,0.00
2023-02-14T01:45:25.963Z,0.00
2023-02-14T01:46:25.938Z,0.00
2023-02-14T01:47:25.925Z,0.00
2023-02-14T01:48:25.911Z,0.00
2023-02-14T01:49:25.913Z,0.00
2023-02-14T01:50:25.894Z,0.00
2023-02-14T01:51:25.886Z,0.00
2023-02-14T01:52:25.880Z,0.00
2023-02-14T01:53:25.851Z,0.00
2023-02-14T01:54:25.878Z,0.00
2023-02-14T01:55:25.833Z,0.00
2023-02-14T01:56:25.831Z,0.00
2023-02-14T01:57:25.808Z,0.00
2023-02-14T01:58:25.804Z,0.00
2023-02-14T01:59:25.797Z,0.00
2023-02-14T02:00:25.805Z,0.00
2023-02-14T02:01:25.802Z,0.00
2023-02-14T02:02:25.811Z,0.00
2023-02-14T02:03:25.755Z,0.00
2023-02-14T02:04:25.745Z,0.00
2023-02-14T02:05:31.717Z,0.00
2023-02-14T02:06:25.721Z,0.00
2023-02-14T02:07:25.710Z,0.00
2023-02-14T02:08:25.708Z,0.00
2023-02-14T02:09:25.694Z,0.00
2023-02-14T02:10:25.694Z,0.00
2023-02-14T02:11:25.669Z,0.00
2023-02-14T02:12:25.692Z,0.00
2023-02-14T02:13:25.685Z,0.00
2023-02-14T02:14:25.652Z,0.00
2023-02-14T02:15:25.626Z,0.00
2023-02-14T02:16:25.645Z,0.00
2023-02-14T02:17:25.601Z,0.00
2023-02-14T02:18:25.591Z,0.00
2023-02-14T02:19:25.582Z,0.00
2023-02-14T02:20:25.574Z,0.00
2023-02-14T02:21:25.565Z,0.00
2023-02-14T02:22:25.552Z,0.00
2023-02-14T02:23:25.589Z,0.00
2023-02-14T02:24:25.566Z,0.00
2023-02-14T02:25:25.537Z,0.00
2023-02-14T02:26:25.513Z,0.00
2023-02-14T02:27:26.193Z,0.00
2023-02-14T02:28:25.484Z,0.00
2023-02-14T02:29:25.501Z,0.00
2023-02-14T02:30:25.526Z,0.00
2023-02-14T02:31:25.536Z,0.00
2023-02-14T02:32:25.446Z,0.00
2023-02-14T02:33:25.502Z,0.00
2023-02-14T02:34:25.432Z,0.00
2023-02-14T02:35:25.418Z,0.00
2023-02-14T02:36:25.395Z,0.00
2023-02-14T02:37:25.381Z,0.00
2023-02-14T02:38:25.380Z,0.00
2023-02-14T02:39:25.358Z,0.00
2023-02-14T02:40:25.396Z,0.00
2023-02-14T02:41:25.340Z,0.00
2023-02-14T02:42:25.339Z,0.00
2023-02-14T02:43:25.315Z,0.00
2023-02-14T02:44:25.313Z,0.00
2023-02-14T02:45:25.315Z,0.00
2023-02-14T02:46:25.341Z,0.00
2023-02-14T02:47:25.283Z,0.00
2023-02-14T02:48:25.264Z,0.00
2023-02-14T02:49:25.252Z,0.00
2023-02-14T02:50:25.246Z,0.00
2023-02-14T02:51:25.243Z,0.00
2023-02-14T02:52:25.235Z,0.00
2023-02-14T02:53:25.206Z,0.00
2023-02-14T02:54:25.201Z,0.00
2023-02-14T02:55:25.208Z,0.00
2023-02-14T02:56:25.188Z,0.00
2023-02-14T02:57:25.161Z,0.00
2023-02-14T02:58:25.169Z,0.00
2023-02-14T02:59:25.144Z,0.00
2023-02-14T03:00:25.137Z,0.00
2023-02-14T03:01:25.152Z,0.00
2023-02-14T03:02:25.133Z,0.00
2023-02-14T03:03:25.102Z,0.00
2023-02-14T03:04:25.123Z,0.00
2023-02-14T03:05:25.097Z,0.00
2023-02-14T03:06:25.089Z,0.00
2023-02-14T03:07:25.064Z,0.00
2023-02-14T03:08:25.056Z,0.00
2023-02-14T03:09:25.051Z,0.00
2023-02-14T03:10:25.037Z,0.00
2023-02-14T03:11:25.022Z,0.00
2023-02-14T03:12:25.013Z,0.00
2023-02-14T03:13:25.100Z,0.00
2023-02-14T03:14:24.986Z,0.00
2023-02-14T03:15:25.010Z,0.00
2023-02-14T03:16:24.968Z,0.00
2023-02-14T03:17:24.953Z,0.00
2023-02-14T03:18:24.942Z,0.00
2023-02-14T03:19:24.938Z,0.00
2023-02-14T03:20:24.931Z,0.00
2023-02-14T03:21:24.916Z,0.00
2023-02-14T03:22:24.905Z,0.00
2023-02-14T03:23:24.910Z,0.00
2023-02-14T03:24:24.882Z,0.00
2023-02-14T03:25:24.874Z,0.00
2023-02-14T03:26:24.879Z,0.00
2023-02-14T03:27:24.843Z,0.00
2023-02-14T03:28:24.840Z,0.00
2023-02-14T03:29:24.829Z,0.00
2023-02-14T03:30:25.840Z,0.00
2023-02-14T03:31:24.922Z,0.00
2023-02-14T03:32:24.804Z,0.00
2023-02-14T03:33:24.782Z,0.00
2023-02-14T03:34:24.777Z,0.00
2023-02-14T03:35:24.760Z,0.00
2023-02-14T03:36:24.756Z,0.00
2023-02-14T03:37:24.756Z,0.00
2023-02-14T03:38:24.729Z,0.00
2023-02-14T03:39:24.720Z,0.00
2023-02-14T03:40:24.718Z,0.00
2023-02-14T03:41:24.697Z,0.00
2023-02-14T03:42:24.711Z,0.00
2023-02-14T03:43:24.677Z,0.00
2023-02-14T03:44:24.669Z,0.00
2023-02-14T03:45:24.693Z,0.00
2023-02-14T03:46:24.692Z,0.00
2023-02-14T03:47:24.636Z,0.00
2023-02-14T03:48:24.642Z,0.00
2023-02-14T03:49:24.614Z,0.00
2023-02-14T03:50:24.607Z,0.00
2023-02-14T03:51:24.609Z,0.00
2023-02-14T03:52:24.582Z,0.00
2023-02-14T03:53:24.578Z,0.00
2023-02-14T03:54:24.571Z,0.00
2023-02-14T03:55:24.547Z,0.00
2023-02-14T03:56:24.551Z,0.00
2023-02-14T03:57:24.528Z,0.00
2023-02-14T03:58:24.523Z,0.00
2023-02-14T03:59:24.510Z,0.00
2023-02-14T04:00:24.506Z,0.00
2023-02-14T04:01:24.557Z,0.00
2023-02-14T04:02:24.473Z,0.00
2023-02-14T04:03:24.525Z,0.00
2023-02-14T04:04:24.454Z,0.00
2023-02-14T04:05:24.440Z,0.00
2023-02-14T04:06:24.460Z,0.00
2023-02-14T04:07:24.415Z,0.00
2023-02-14T04:08:24.421Z,0.00
2023-02-14T04:09:24.398Z,0.00
2023-02-14T04:10:24.411Z,0.00
2023-02-14T04:11:24.753Z,0.00
2023-02-14T04:12:37.201Z,0.00
2023-02-14T04:13:24.355Z,0.00
2023-02-14T04:14:24.354Z,0.00
2023-02-14T04:15:24.349Z,0.00
2023-02-14T04:16:24.398Z,0.00
2023-02-14T04:17:24.344Z,0.00
2023-02-14T04:18:24.302Z,0.00
2023-02-14T04:19:24.297Z,0.00
2023-02-14T04:20:24.285Z,0.00
2023-02-14T04:21:24.264Z,0.00
2023-02-14T04:22:24.259Z,0.00
2023-02-14T04:23:24.252Z,0.00
2023-02-14T04:24:24.244Z,0.00
2023-02-14T04:25:24.241Z,0.00
2023-02-14T04:26:26.791Z,0.00
2023-02-14T04:28:34.273Z,0.00
2023-02-14T04:29:35.249Z,0.00
2023-02-14T04:30:35.246Z,0.00
2023-02-14T04:32:45.309Z,0.00
2023-02-14T04:33:46.285Z,0.00
2023-02-14T04:34:46.281Z,0.00
2023-02-14T04:35:46.265Z,0.00
2023-02-14T04:36:46.259Z,0.00
2023-02-14T04:37:46.325Z,0.00
2023-02-14T04:38:46.236Z,0.00
2023-02-14T04:39:46.220Z,0.00
2023-02-14T04:40:46.242Z,0.00
2023-02-14T04:41:46.198Z,0.00
2023-02-14T04:42:46.212Z,0.00
2023-02-14T04:43:46.180Z,0.00
2023-02-14T04:44:46.166Z,0.00
2023-02-14T04:45:46.161Z,0.00
2023-02-14T04:46:46.188Z,0.00
2023-02-14T04:47:46.140Z,0.00
2023-02-14T04:48:46.130Z,0.00
2023-02-14T04:49:46.124Z,0.00
2023-02-14T04:50:46.121Z,0.00
2023-02-14T04:51:46.097Z,0.00
2023-02-14T04:52:46.102Z,0.00
2023-02-14T04:53:46.070Z,0.00
2023-02-14T04:54:46.083Z,0.00
2023-02-14T04:55:46.054Z,0.00
2023-02-14T04:56:46.054Z,0.00
2023-02-14T04:57:46.034Z,0.00
2023-02-14T04:58:46.032Z,0.00
2023-02-14T04:59:46.010Z,0.00
2023-02-14T05:00:46.071Z,0.00
2023-02-14T05:01:46.004Z,0.00
2023-02-14T05:02:45.988Z,0.00
2023-02-14T05:03:45.974Z,0.00
2023-02-14T05:04:47.163Z,0.00
2023-02-14T05:05:45.938Z,0.00
2023-02-14T05:06:45.935Z,0.00
2023-02-14T05:07:45.926Z,0.00
2023-02-14T05:08:45.931Z,0.00
2023-02-14T05:09:45.945Z,0.00
2023-02-14T05:10:45.894Z,0.00
2023-02-14T05:11:45.902Z,0.00
2023-02-14T05:12:45.876Z,0.00
2023-02-14T05:13:45.858Z,0.00
2023-02-14T05:14:45.877Z,0.00
2023-02-14T05:15:45.836Z,0.00
2023-02-14T05:16:45.892Z,0.00
2023-02-14T05:17:45.823Z,0.00
2023-02-14T05:18:45.806Z,0.00
2023-02-14T05:19:45.809Z,0.00
2023-02-14T05:20:45.788Z,0.00
2023-02-14T05:21:45.780Z,0.00
2023-02-14T05:23:56.319Z,0.00
2023-02-14T05:24:57.306Z,0.00
2023-02-14T05:25:57.309Z,0.00
2023-02-14T05:26:57.280Z,0.00
2023-02-14T05:27:57.455Z,0.00
2023-02-14T05:28:57.263Z,0.00
2023-02-14T05:31:08.567Z,0.00
2023-02-14T05:32:09.417Z,0.00
2023-02-14T05:33:09.328Z,0.00
2023-02-14T05:34:09.319Z,0.00
2023-02-14T05:35:09.330Z,0.00
2023-02-14T05:36:09.299Z,0.00
2023-02-14T05:37:09.292Z,0.00
2023-02-14T05:38:09.270Z,0.00
2023-02-14T05:39:09.271Z,0.00
2023-02-14T05:40:09.272Z,0.00
2023-02-14T05:41:09.247Z,0.00
2023-02-14T05:42:13.604Z,0.00
2023-02-14T05:43:09.244Z,0.00
2023-02-14T05:44:09.207Z,0.00
2023-02-14T05:45:09.217Z,0.00
2023-02-14T05:46:09.287Z,0.00
2023-02-14T05:47:10.563Z,0.00
2023-02-14T05:48:09.176Z,0.00
2023-02-14T05:49:09.158Z,0.00
2023-02-14T05:50:09.163Z,0.00
2023-02-14T05:51:09.157Z,0.00
2023-02-14T05:52:09.128Z,0.00
2023-02-14T05:53:10.100Z,0.00
2023-02-14T05:54:10.935Z,0.00
2023-02-14T05:55:09.103Z,0.00
2023-02-14T05:56:09.121Z,0.00
2023-02-14T05:57:09.076Z,0.00
2023-02-14T05:58:09.081Z,0.00
2023-02-14T05:59:09.050Z,0.00
2023-02-14T06:00:09.053Z,0.00
2023-02-14T06:01:09.099Z,0.00
2023-02-14T06:02:09.053Z,0.00
2023-02-14T06:03:09.038Z,0.00
2023-02-14T06:04:09.025Z,0.00
2023-02-14T06:05:08.993Z,0.00
2023-02-14T06:06:08.995Z,0.00
2023-02-14T06:07:08.970Z,0.00
2023-02-14T06:08:08.967Z,0.00
2023-02-14T06:09:08.957Z,0.00
2023-02-14T06:10:08.946Z,0.00
2023-02-14T06:11:08.936Z,0.00
2023-02-14T06:12:08.934Z,0.00
2023-02-14T06:13:09.013Z,0.00
2023-02-14T06:14:08.914Z,0.00
2023-02-14T06:15:08.884Z,0.00
2023-02-14T06:16:08.880Z,0.00
2023-02-14T06:17:08.879Z,0.00
2023-02-14T06:18:08.865Z,0.00
2023-02-14T06:19:08.806Z,1.00
2023-02-14T06:20:08.843Z,0.00
2023-02-14T06:21:08.786Z,1.00
2023-02-14T06:22:08.767Z,1.00
2023-02-14T06:23:08.761Z,1.00
2023-02-14T06:24:08.748Z,1.00
2023-02-14T06:25:08.783Z,0.00
2023-02-14T06:26:08.796Z,0.00
2023-02-14T06:27:08.726Z,2.00
2023-02-14T06:28:08.714Z,1.00
2023-02-14T06:29:08.693Z,1.00
2023-02-14T06:30:08.791Z,0.00
2023-02-14T06:31:08.884Z,0.00
2023-02-14T06:32:08.818Z,3.00
2023-02-14T06:33:08.652Z,2.00
2023-02-14T06:34:08.645Z,5.00
2023-02-14T06:35:08.640Z,3.00
2023-02-14T06:36:08.684Z,5.00
2023-02-14T06:37:08.614Z,6.00
2023-02-14T06:38:08.612Z,7.00
2023-02-14T06:39:08.587Z,7.00
2023-02-14T06:40:08.593Z,7.00
2023-02-14T06:41:08.635Z,12.00
2023-02-14T06:42:08.562Z,13.00
2023-02-14T06:43:08.548Z,14.00
2023-02-14T06:44:08.538Z,15.00
2023-02-14T06:45:08.543Z,23.00
2023-02-14T06:46:08.618Z,21.00
2023-02-14T06:47:08.540Z,22.00
2023-02-14T06:48:08.499Z,23.00
2023-02-14T06:49:08.487Z,24.00
2023-02-14T06:50:08.485Z,29.00
2023-02-14T06:51:08.487Z,35.00
2023-02-14T06:52:08.463Z,40.00
2023-02-14T06:53:08.448Z,40.00
2023-02-14T06:54:08.440Z,45.00
2023-02-14T06:55:08.443Z,49.00
2023-02-14T06:56:08.441Z,51.00
2023-02-14T06:57:08.419Z,57.00
2023-02-14T06:58:08.413Z,60.00
2023-02-14T06:59:08.391Z,65.00
2023-02-14T07:00:08.384Z,69.00
2023-02-14T07:01:08.528Z,73.00
2023-02-14T07:02:08.372Z,74.00
2023-02-14T07:03:08.351Z,79.00
2023-02-14T07:04:08.339Z,82.00
2023-02-14T07:05:08.344Z,86.00
2023-02-14T07:06:08.321Z,91.00
2023-02-14T07:07:08.301Z,93.00
2023-02-14T07:08:08.309Z,98.00
2023-02-14T07:09:08.281Z,100.00
2023-02-14T07:10:08.285Z,107.00
2023-02-14T07:11:08.281Z,108.00
2023-02-14T07:12:08.258Z,113.00
2023-02-14T07:13:08.273Z,117.00
2023-02-14T07:14:08.232Z,122.00
2023-02-14T07:15:08.239Z,126.00
2023-02-14T07:18:37.277Z,173.00
2023-02-14T07:19:38.220Z,175.00
2023-02-14T07:20:38.208Z,179.00
2023-02-14T07:21:38.198Z,183.00
2023-02-14T07:22:38.196Z,185.00
2023-02-14T07:23:38.189Z,167.00
2023-02-14T07:24:38.188Z,167.00
2023-02-14T07:25:38.162Z,174.00
2023-02-14T07:26:38.142Z,175.00
2023-02-14T07:27:38.154Z,177.00
2023-02-14T07:28:38.141Z,182.00
2023-02-14T07:29:38.231Z,189.00
2023-02-14T07:30:38.106Z,190.00
2023-02-14T07:31:38.250Z,196.00
2023-02-14T07:32:38.082Z,200.00
2023-02-14T07:33:38.083Z,203.00
2023-02-14T07:34:38.076Z,206.00
2023-02-14T07:35:38.053Z,210.00
2023-02-14T07:36:38.074Z,217.00
2023-02-14T07:37:38.054Z,221.00
2023-02-14T07:38:38.028Z,218.00
2023-02-14T07:39:38.011Z,223.00
2023-02-14T07:40:38.007Z,228.00
2023-02-14T07:41:37.992Z,232.00
2023-02-14T07:42:37.975Z,237.00
2023-02-14T07:43:38.001Z,245.00
2023-02-14T07:44:37.958Z,248.00
2023-02-14T07:45:37.969Z,249.00
2023-02-14T07:46:38.001Z,253.00
2023-02-14T07:47:37.928Z,255.00
2023-02-14T07:48:37.918Z,255.00
2023-02-14T07:49:37.961Z,262.00
2023-02-14T07:50:37.946Z,266.00
2023-02-14T07:51:37.912Z,268.00
2023-02-14T07:52:37.878Z,269.00
2023-02-14T07:53:37.935Z,269.00
2023-02-14T07:54:37.855Z,276.00
2023-02-14T07:55:37.869Z,279.00
2023-02-14T07:56:37.831Z,280.00
2023-02-14T07:57:37.830Z,284.00
2023-02-14T07:58:37.807Z,291.00
2023-02-14T07:59:37.823Z,292.00
2023-02-14T08:00:37.831Z,291.00
2023-02-14T08:01:37.848Z,296.00
2023-02-14T08:02:37.796Z,297.00
2023-02-14T08:03:37.878Z,301.00
2023-02-14T08:04:37.845Z,304.00
2023-02-14T08:05:37.764Z,305.00
2023-02-14T08:06:37.734Z,306.00
2023-02-14T08:07:37.748Z,308.00
2023-02-14T08:08:37.754Z,314.00
2023-02-14T08:09:37.704Z,316.00
2023-02-14T08:10:37.688Z,314.00
2023-02-14T08:11:37.694Z,321.00
2023-02-14T08:12:37.666Z,320.00
2023-02-14T08:13:37.691Z,324.00
2023-02-14T08:14:37.669Z,331.00
2023-02-14T08:15:37.727Z,328.00
2023-02-14T08:16:37.632Z,330.00
2023-02-14T08:17:37.629Z,333.00
2023-02-14T08:18:37.673Z,338.00
2023-02-14T08:19:37.617Z,336.00
2023-02-14T08:20:37.629Z,338.00
2023-02-14T08:21:37.583Z,342.00
2023-02-14T08:22:37.576Z,345.00
2023-02-14T08:23:37.579Z,346.00
2023-02-14T08:24:37.590Z,345.00
2023-02-14T08:25:37.563Z,346.00
2023-02-14T08:26:37.521Z,346.00
2023-02-14T08:27:37.535Z,346.00
2023-02-14T08:28:37.535Z,348.00
2023-02-14T08:29:37.498Z,354.00
2023-02-14T08:30:37.480Z,357.00
2023-02-14T08:31:37.589Z,358.00
2023-02-14T08:32:37.612Z,365.00
2023-02-14T08:33:37.458Z,367.00
2023-02-14T08:34:37.444Z,369.00
2023-02-14T08:35:37.438Z,367.00
2023-02-14T08:36:37.443Z,370.00
2023-02-14T08:37:37.463Z,376.00
2023-02-14T08:38:37.399Z,381.00
2023-02-14T08:39:37.392Z,380.00
2023-02-14T08:40:37.447Z,385.00
2023-02-14T08:41:37.404Z,387.00
2023-02-14T08:42:37.395Z,387.00
2023-02-14T08:43:37.366Z,392.00
2023-02-14T08:44:37.348Z,396.00
2023-02-14T08:45:37.331Z,395.00
2023-02-14T08:46:37.381Z,398.00
2023-02-14T08:47:37.342Z,402.00
2023-02-14T08:48:39.308Z,405.00
2023-02-14T08:49:37.295Z,408.00
2023-02-14T08:50:37.289Z,411.00
2023-02-14T08:51:37.297Z,412.00
2023-02-14T08:52:37.262Z,410.00
2023-02-14T08:53:37.256Z,415.00
2023-02-14T08:54:37.252Z,420.00
2023-02-14T08:55:37.274Z,422.00
2023-02-14T08:56:37.243Z,422.00
2023-02-14T08:57:37.280Z,424.00
2023-02-14T08:58:37.213Z,427.00
2023-02-14T08:59:37.208Z,427.00
2023-02-14T09:00:37.262Z,429.00
2023-02-14T09:01:37.226Z,429.00
2023-02-14T09:02:37.221Z,429.00
2023-02-14T09:03:38.441Z,430.00
2023-02-14T09:04:37.234Z,436.00
2023-02-14T09:05:37.148Z,436.00
2023-02-14T09:06:37.141Z,442.00
2023-02-14T09:07:37.139Z,439.00
2023-02-14T09:08:37.113Z,439.00
2023-02-14T09:09:37.116Z,440.00
2023-02-14T09:10:37.089Z,436.00
2023-02-14T09:11:37.075Z,446.00
2023-02-14T09:12:37.070Z,441.00
2023-02-14T09:13:37.061Z,439.00
2023-02-14T09:14:37.079Z,441.00
2023-02-14T09:15:37.043Z,439.00
2023-02-14T09:16:37.149Z,440.00
2023-02-14T09:17:37.047Z,440.00
2023-02-14T09:18:37.008Z,440.00
2023-02-14T09:19:37.065Z,441.00
2023-02-14T09:20:37.001Z,439.00
2023-02-14T09:21:37.026Z,437.00
2023-02-14T09:22:37.014Z,429.00
2023-02-14T09:23:37.000Z,427.00
2023-02-14T09:24:36.961Z,425.00
2023-02-14T09:25:36.949Z,422.00
2023-02-14T09:26:36.937Z,419.00
2023-02-14T09:27:36.962Z,415.00
2023-02-14T09:28:36.899Z,415.00
2023-02-14T09:29:36.950Z,410.00
2023-02-14T09:30:36.887Z,409.00
2023-02-14T09:31:36.963Z,407.00
2023-02-14T09:32:36.867Z,404.00
2023-02-14T09:33:36.870Z,398.00
2023-02-14T09:34:36.834Z,395.00
2023-02-14T09:35:36.834Z,394.00
2023-02-14T09:36:36.830Z,392.00
2023-02-14T09:37:36.814Z,389.00
2023-02-14T09:38:36.805Z,385.00
2023-02-14T09:39:36.793Z,379.00
2023-02-14T09:40:36.777Z,375.00
2023-02-14T09:41:36.770Z,368.00
2023-02-14T09:42:36.760Z,361.00
2023-02-14T09:43:36.794Z,358.00
2023-02-14T09:44:36.746Z,353.00
2023-02-14T09:45:36.776Z,346.00
2023-02-14T09:46:36.712Z,342.00
2023-02-14T09:47:36.742Z,340.00
2023-02-14T09:48:36.706Z,341.00
2023-02-14T09:49:36.832Z,338.00
2023-02-14T09:50:36.684Z,345.00
2023-02-14T09:51:36.674Z,382.00
2023-02-14T09:52:36.661Z,463.00
2023-02-14T09:53:36.653Z,523.00
2023-02-14T09:54:36.646Z,475.00
2023-02-14T09:55:36.645Z,469.00
2023-02-14T09:56:50.310Z,392.00
2023-02-14T09:57:36.623Z,619.00
2023-02-14T09:58:36.614Z,950.00
2023-02-14T09:59:36.612Z,976.00
2023-02-14T10:00:36.627Z,908.00
2023-02-14T10:01:36.625Z,1010.00
2023-02-14T10:02:36.606Z,1078.00
2023-02-14T10:03:36.544Z,981.00
2023-02-14T10:04:39.415Z,843.00
2023-02-14T10:05:36.530Z,584.00
2023-02-14T10:06:36.529Z,382.00
2023-02-14T10:07:36.521Z,325.00
2023-02-14T10:08:36.492Z,320.00
2023-02-14T10:09:36.485Z,320.00
2023-02-14T10:10:38.650Z,320.00
2023-02-14T10:11:36.472Z,318.00
2023-02-14T10:12:36.463Z,318.00
2023-02-14T10:13:36.465Z,315.00
2023-02-14T10:14:36.433Z,316.00
2023-02-14T10:15:36.436Z,316.00
2023-02-14T10:16:36.455Z,317.00
2023-02-14T10:17:36.416Z,315.00
2023-02-14T10:18:36.431Z,317.00
2023-02-14T10:19:36.404Z,317.00
2023-02-14T10:20:36.369Z,322.00
2023-02-14T10:21:36.373Z,319.00
2023-02-14T10:22:36.355Z,323.00
2023-02-14T10:23:36.373Z,326.00
2023-02-14T10:24:36.329Z,323.00
2023-02-14T10:25:36.327Z,324.00
2023-02-14T10:26:36.325Z,326.00
2023-02-14T10:27:36.316Z,328.00
2023-02-14T10:28:36.293Z,328.00
2023-02-14T10:29:36.281Z,330.00
2023-02-14T10:30:36.345Z,332.00
2023-02-14T10:31:36.438Z,336.00
2023-02-14T10:32:36.254Z,336.00
2023-02-14T10:33:36.257Z,338.00
2023-02-14T10:34:36.225Z,342.00
2023-02-14T10:35:36.282Z,344.00
2023-02-14T10:36:36.199Z,348.00
2023-02-14T10:37:36.198Z,351.00
2023-02-14T10:38:36.195Z,354.00
2023-02-14T10:39:36.191Z,356.00
2023-02-14T10:40:36.183Z,361.00
2023-02-14T10:41:36.168Z,362.00
2023-02-14T10:42:36.154Z,365.00
2023-02-14T10:43:36.159Z,367.00
2023-02-14T10:44:36.123Z,369.00
2023-02-14T10:45:36.167Z,371.00
2023-02-14T10:46:36.106Z,374.00
2023-02-14T10:47:36.113Z,376.00
2023-02-14T10:48:36.086Z,378.00
2023-02-14T10:49:36.096Z,382.00
2023-02-14T10:50:36.060Z,386.00
2023-02-14T10:51:36.056Z,388.00
2023-02-14T10:52:36.068Z,393.00
2023-02-14T10:53:36.041Z,397.00
2023-02-14T10:54:36.028Z,401.00
2023-02-14T10:55:36.016Z,404.00
2023-02-14T10:56:36.006Z,410.00
2023-02-14T10:57:36.008Z,413.00
2023-02-14T10:58:35.998Z,418.00
2023-02-14T10:59:35.988Z,423.00
2023-02-14T11:00:35.984Z,429.00
2023-02-14T11:01:36.050Z,434.00
2023-02-14T11:02:35.974Z,439.00
2023-02-14T11:03:35.994Z,441.00
2023-02-14T11:04:35.922Z,448.00
2023-02-14T11:05:35.936Z,457.00
2023-02-14T11:06:35.902Z,459.00
2023-02-14T11:07:35.902Z,466.00
2023-02-14T11:08:35.897Z,469.00
2023-02-14T11:09:35.886Z,474.00
2023-02-14T11:10:35.864Z,479.00
2023-02-14T11:11:35.862Z,483.00
2023-02-14T11:12:35.849Z,488.00
2023-02-14T11:13:35.845Z,494.00
2023-02-14T11:14:35.854Z,499.00
2023-02-14T11:15:35.817Z,505.00
2023-02-14T11:16:35.851Z,509.00
2023-02-14T11:17:35.799Z,512.00
2023-02-14T11:18:35.911Z,515.00
2023-02-14T11:19:37.340Z,518.00
2023-02-14T11:20:35.776Z,519.00
2023-02-14T11:21:35.758Z,525.00
2023-02-14T11:22:35.759Z,526.00
2023-02-14T11:23:35.730Z,527.00
2023-02-14T11:24:35.726Z,528.00
2023-02-14T11:25:35.740Z,529.00
2023-02-14T11:26:35.720Z,530.00
2023-02-14T11:27:37.838Z,527.00
2023-02-14T11:28:35.681Z,525.00
2023-02-14T11:29:35.681Z,534.00
2023-02-14T11:30:35.714Z,535.00
2023-02-14T11:31:35.790Z,539.00
2023-02-14T11:32:35.646Z,536.00
2023-02-14T11:33:35.690Z,536.00
2023-02-14T11:34:35.647Z,536.00
2023-02-14T11:35:35.605Z,537.00
2023-02-14T11:36:35.606Z,539.00
2023-02-14T11:37:35.583Z,540.00
2023-02-14T11:38:35.589Z,540.00
2023-02-14T11:39:35.596Z,536.00
2023-02-14T11:40:35.559Z,535.00
2023-02-14T11:41:35.543Z,536.00
2023-02-14T11:42:35.541Z,539.00
2023-02-14T11:43:35.531Z,540.00
2023-02-14T11:44:35.525Z,538.00
2023-02-14T11:45:35.512Z,540.00
2023-02-14T11:46:41.243Z,540.00
2023-02-14T11:47:35.497Z,541.00
2023-02-14T11:48:38.715Z,541.00
2023-02-14T11:49:35.482Z,541.00
2023-02-14T11:50:35.506Z,541.00
2023-02-14T11:51:35.436Z,540.00
2023-02-14T11:52:35.430Z,543.00
2023-02-14T11:53:35.416Z,543.00
2023-02-14T11:54:35.431Z,543.00
2023-02-14T11:55:35.405Z,542.00
2023-02-14T11:56:35.392Z,542.00
2023-02-14T11:57:35.429Z,542.00
2023-02-14T11:58:35.376Z,541.00
2023-02-14T11:59:35.375Z,541.00
2023-02-14T12:00:35.400Z,542.00
2023-02-14T12:01:35.330Z,539.00
2023-02-14T12:02:35.359Z,537.00
2023-02-14T12:03:35.337Z,537.00
2023-02-14T12:04:44.767Z,536.00
2023-02-14T12:05:35.312Z,539.00
2023-02-14T12:06:35.297Z,538.00
2023-02-14T12:07:35.277Z,536.00
2023-02-14T12:08:35.269Z,535.00
2023-02-14T12:09:35.250Z,533.00
2023-02-14T12:10:35.271Z,533.00
2023-02-14T12:11:35.262Z,530.00
2023-02-14T12:12:35.227Z,529.00
2023-02-14T12:13:35.205Z,528.00
2023-02-14T12:14:35.227Z,525.00
2023-02-14T12:15:35.215Z,527.00
2023-02-14T12:16:35.182Z,527.00
2023-02-14T12:17:35.174Z,527.00
2023-02-14T12:18:35.182Z,526.00
2023-02-14T12:19:35.170Z,524.00
2023-02-14T12:20:35.143Z,523.00
2023-02-14T12:21:35.122Z,521.00
2023-02-14T12:22:35.124Z,520.00
2023-02-14T12:23:35.112Z,519.00
2023-02-14T12:24:35.118Z,518.00
2023-02-14T12:25:35.077Z,519.00
2023-02-14T12:26:35.075Z,520.00
2023-02-14T12:27:35.703Z,520.00
2023-02-14T12:28:35.047Z,519.00
2023-02-14T12:29:35.060Z,519.00
2023-02-14T12:30:35.046Z,517.00
2023-02-14T12:31:35.087Z,516.00
2023-02-14T12:32:35.009Z,514.00
2023-02-14T12:33:35.010Z,513.00
2023-02-14T12:34:34.995Z,510.00
2023-02-14T12:35:34.992Z,510.00
2023-02-14T12:36:35.001Z,512.00
2023-02-14T12:37:34.990Z,514.00
2023-02-14T12:38:34.953Z,517.00
2023-02-14T12:39:34.926Z,522.00
2023-02-14T12:40:34.924Z,525.00
2023-02-14T12:41:34.924Z,531.00
2023-02-14T12:42:34.902Z,535.00
2023-02-14T12:43:34.882Z,537.00
2023-02-14T12:44:34.881Z,539.00
2023-02-14T12:45:34.872Z,543.00
2023-02-14T12:46:34.846Z,543.00
2023-02-14T12:47:34.852Z,544.00
2023-02-14T12:48:34.827Z,544.00
2023-02-14T12:49:34.875Z,538.00
2023-02-14T12:50:34.877Z,537.00
2023-02-14T12:51:34.835Z,532.00
2023-02-14T12:52:34.794Z,532.00
2023-02-14T12:53:34.823Z,530.00
2023-02-14T12:54:34.771Z,532.00
2023-02-14T12:55:34.844Z,538.00
2023-02-14T12:56:34.736Z,549.00
2023-02-14T12:57:34.733Z,562.00
2023-02-14T12:58:34.734Z,573.00
2023-02-14T12:59:34.703Z,580.00
2023-02-14T13:00:34.696Z,581.00
2023-02-14T13:01:38.812Z,586.00